createdAt,value
2018-06-01T00:00:45.553Z,14.82
2018-06-01T00:01:53.586Z,14.73
2018-06-01T00:03:01.667Z,14.85
2018-06-01T00:04:09.741Z,14.74
2018-06-01T00:05:17.802Z,14.67
2018-06-01T00:06:25.859Z,14.77
2018-06-01T00:07:33.906Z,14.74
2018-06-01T00:08:42.002Z,14.73
2018-06-01T00:09:50.067Z,14.67
2018-06-01T00:10:58.136Z,14.52
2018-06-01T00:12:06.211Z,14.66
2018-06-01T00:13:14.238Z,14.51
2018-06-01T00:14:22.340Z,14.45
2018-06-01T00:15:30.405Z,14.41
2018-06-01T00:16:38.471Z,14.51
2018-06-01T00:17:48.304Z,14.36
2018-06-01T00:18:54.594Z,14.40
2018-06-01T00:20:02.664Z,14.37
2018-06-01T00:21:10.731Z,14.34
2018-06-01T00:22:18.795Z,14.25
2018-06-01T00:23:26.854Z,14.25
2018-06-01T00:24:34.916Z,14.13
2018-06-01T00:25:43.004Z,14.04
2018-06-01T00:26:51.065Z,14.13
2018-06-01T00:27:59.128Z,14.03
2018-06-01T00:29:07.201Z,13.97
2018-06-01T00:30:15.262Z,13.98
2018-06-01T00:31:23.340Z,13.87
2018-06-01T00:32:31.396Z,13.86
2018-06-01T00:33:39.475Z,13.91
2018-06-01T00:34:47.532Z,13.86
2018-06-01T00:35:55.610Z,13.82
2018-06-01T00:37:03.642Z,13.78
2018-06-01T00:38:11.733Z,13.85
2018-06-01T00:39:19.797Z,13.86
2018-06-01T00:40:27.859Z,13.82
2018-06-01T00:41:35.918Z,13.80
2018-06-01T00:42:43.975Z,13.75
2018-06-01T00:43:52.051Z,13.82
2018-06-01T00:45:00.128Z,13.82
2018-06-01T00:46:08.192Z,13.79
2018-06-01T00:47:16.262Z,13.85
2018-06-01T00:48:24.301Z,13.78
2018-06-01T00:49:32.387Z,13.78
2018-06-01T00:50:40.457Z,13.83
2018-06-01T00:51:48.525Z,13.79
2018-06-01T00:52:56.581Z,13.79
2018-06-01T00:54:04.647Z,13.70
2018-06-01T00:55:12.704Z,13.79
2018-06-01T00:56:20.779Z,13.80
2018-06-01T00:57:28.852Z,13.73
2018-06-01T00:58:36.932Z,13.71
2018-06-01T00:59:44.978Z,13.60
2018-06-01T01:00:53.054Z,13.57
2018-06-01T01:02:01.116Z,13.47
2018-06-01T01:03:09.177Z,13.46
2018-06-01T01:04:17.249Z,13.43
2018-06-01T01:05:25.342Z,13.47
2018-06-01T01:06:33.372Z,13.42
2018-06-01T01:07:41.452Z,13.55
2018-06-01T01:08:49.523Z,13.49
2018-06-01T01:09:57.580Z,13.50
2018-06-01T01:11:05.666Z,13.49
2018-06-01T01:12:13.699Z,13.45
2018-06-01T01:13:21.781Z,13.49
2018-06-01T01:14:29.853Z,13.62
2018-06-01T01:15:37.918Z,13.61
2018-06-01T01:16:45.981Z,13.68
2018-06-01T01:17:54.011Z,13.68
2018-06-01T01:19:02.112Z,13.64
2018-06-01T01:20:10.190Z,13.62
2018-06-01T01:21:18.232Z,13.64
2018-06-01T01:22:26.309Z,13.60
2018-06-01T01:23:34.343Z,13.68
2018-06-01T01:24:42.432Z,13.65
2018-06-01T01:25:50.518Z,13.70
2018-06-01T01:26:58.559Z,13.70
2018-06-01T01:28:06.621Z,13.61
2018-06-01T01:29:14.705Z,13.70
2018-06-01T01:30:22.779Z,13.80
2018-06-01T01:31:30.840Z,13.73
2018-06-01T01:32:38.898Z,13.70
2018-06-01T01:33:46.947Z,13.73
2018-06-01T01:34:55.029Z,13.70
2018-06-01T01:36:03.100Z,13.83
2018-06-01T01:37:11.163Z,13.83
2018-06-01T01:38:19.230Z,13.82
2018-06-01T01:39:27.294Z,13.86
2018-06-01T01:40:35.356Z,13.80
2018-06-01T01:41:43.427Z,13.80
2018-06-01T01:42:51.499Z,13.86
2018-06-01T01:43:59.562Z,13.82
2018-06-01T01:45:07.623Z,13.91
2018-06-01T01:46:15.682Z,13.91
2018-06-01T01:47:23.732Z,13.91
2018-06-01T01:48:31.830Z,13.93
2018-06-01T01:49:39.881Z,13.86
2018-06-01T01:50:47.956Z,13.93
2018-06-01T01:51:56.016Z,13.89
2018-06-01T01:53:04.062Z,13.78
2018-06-01T01:54:12.155Z,13.82
2018-06-01T01:55:20.207Z,13.79
2018-06-01T01:56:28.326Z,13.75
2018-06-01T01:57:36.352Z,13.75
2018-06-01T01:58:44.385Z,13.65
2018-06-01T01:59:52.473Z,13.67
2018-06-01T02:01:00.529Z,13.62
2018-06-01T02:02:08.616Z,13.55
2018-06-01T02:03:16.682Z,13.54
2018-06-01T02:04:24.726Z,13.57
2018-06-01T02:05:32.808Z,13.57
2018-06-01T02:06:40.871Z,13.55
2018-06-01T02:07:48.938Z,13.55
2018-06-01T02:08:57.010Z,13.46
2018-06-01T02:10:05.068Z,13.45
2018-06-01T02:11:13.142Z,13.42
2018-06-01T02:12:21.207Z,13.49
2018-06-01T02:13:29.270Z,13.45
2018-06-01T02:14:37.330Z,13.42
2018-06-01T02:15:45.405Z,13.42
2018-06-01T02:16:53.468Z,13.33
2018-06-01T02:18:01.527Z,13.37
2018-06-01T02:19:09.605Z,13.26
2018-06-01T02:20:17.674Z,13.26
2018-06-01T02:21:25.710Z,13.21
2018-06-01T02:22:33.766Z,13.28
2018-06-01T02:23:41.865Z,13.26
2018-06-01T02:24:49.933Z,13.24
2018-06-01T02:25:57.983Z,13.36
2018-06-01T02:27:06.053Z,13.36
2018-06-01T02:28:14.088Z,13.31
2018-06-01T02:29:22.175Z,13.39
2018-06-01T02:30:30.271Z,13.42
2018-06-01T02:31:38.317Z,13.27
2018-06-01T02:32:46.422Z,13.36
2018-06-01T02:33:54.432Z,13.31
2018-06-01T02:35:02.509Z,13.33
2018-06-01T02:36:10.588Z,13.40
2018-06-01T02:37:18.650Z,13.24
2018-06-01T02:38:26.706Z,13.27
2018-06-01T02:39:34.768Z,13.24
2018-06-01T02:40:42.837Z,13.23
2018-06-01T02:41:50.910Z,13.08
2018-06-01T02:42:58.973Z,13.21
2018-06-01T02:44:07.038Z,13.02
2018-06-01T02:45:15.109Z,13.02
2018-06-01T02:46:23.175Z,13.03
2018-06-01T02:47:31.234Z,13.02
2018-06-01T02:48:39.303Z,12.95
2018-06-01T02:49:47.371Z,12.99
2018-06-01T02:50:55.430Z,12.99
2018-06-01T02:52:03.493Z,13.01
2018-06-01T02:53:11.562Z,12.94
2018-06-01T02:54:19.626Z,12.91
2018-06-01T02:55:27.684Z,12.98
2018-06-01T02:56:35.755Z,12.86
2018-06-01T02:57:43.799Z,12.93
2018-06-01T02:58:51.899Z,12.93
2018-06-01T02:59:59.963Z,12.86
2018-06-01T03:01:08.032Z,12.93
2018-06-01T03:02:16.091Z,13.01
2018-06-01T03:03:24.144Z,12.93
2018-06-01T03:04:32.228Z,12.88
2018-06-01T03:05:40.346Z,12.80
2018-06-01T03:06:48.363Z,12.91
2018-06-01T03:07:56.408Z,12.95
2018-06-01T03:09:04.465Z,12.88
2018-06-01T03:10:12.538Z,12.94
2018-06-01T03:11:20.628Z,12.80
2018-06-01T03:12:28.685Z,12.88
2018-06-01T03:13:36.755Z,12.83
2018-06-01T03:14:44.797Z,12.81
2018-06-01T03:15:52.880Z,12.81
2018-06-01T03:17:00.949Z,12.83
2018-06-01T03:18:09.022Z,12.84
2018-06-01T03:19:17.082Z,12.84
2018-06-01T03:20:25.136Z,12.83
2018-06-01T03:21:33.215Z,12.80
2018-06-01T03:22:41.284Z,12.84
2018-06-01T03:23:49.348Z,12.81
2018-06-01T03:24:57.411Z,12.80
2018-06-01T03:26:05.476Z,12.83
2018-06-01T03:27:13.522Z,12.81
2018-06-01T03:28:21.606Z,12.87
2018-06-01T03:29:29.665Z,12.83
2018-06-01T03:30:37.743Z,12.84
2018-06-01T03:31:45.812Z,12.76
2018-06-01T03:32:53.844Z,12.81
2018-06-01T03:34:01.944Z,12.88
2018-06-01T03:35:10.001Z,12.91
2018-06-01T03:36:18.076Z,12.95
2018-06-01T03:37:26.120Z,12.88
2018-06-01T03:38:34.160Z,12.84
2018-06-01T03:39:42.255Z,12.84
2018-06-01T03:40:50.322Z,12.84
2018-06-01T03:41:58.389Z,12.87
2018-06-01T03:43:06.459Z,12.93
2018-06-01T03:44:14.517Z,12.94
2018-06-01T03:45:22.593Z,12.99
2018-06-01T03:46:30.661Z,13.03
2018-06-01T03:47:38.711Z,12.94
2018-06-01T03:48:46.790Z,13.05
2018-06-01T03:49:54.855Z,12.93
2018-06-01T03:51:02.923Z,13.09
2018-06-01T03:52:10.991Z,13.01
2018-06-01T03:53:19.041Z,12.98
2018-06-01T03:54:27.118Z,12.95
2018-06-01T03:55:35.185Z,13.05
2018-06-01T03:56:43.247Z,12.99
2018-06-01T03:57:51.310Z,13.01
2018-06-01T03:58:59.373Z,12.94
2018-06-01T04:00:07.447Z,12.95
2018-06-01T04:01:15.509Z,12.94
2018-06-01T04:02:23.564Z,12.90
2018-06-01T04:03:31.648Z,12.87
2018-06-01T04:04:39.705Z,12.90
2018-06-01T04:05:47.786Z,12.81
2018-06-01T04:06:55.839Z,12.93
2018-06-01T04:08:03.891Z,12.83
2018-06-01T04:09:12.027Z,12.78
2018-06-01T04:10:20.045Z,12.75
2018-06-01T04:11:28.113Z,12.80
2018-06-01T04:12:36.164Z,12.83
2018-06-01T04:13:44.217Z,12.78
2018-06-01T04:14:52.303Z,12.78
2018-06-01T04:16:00.381Z,12.72
2018-06-01T04:17:08.483Z,12.69
2018-06-01T04:18:16.502Z,12.72
2018-06-01T04:19:24.555Z,12.80
2018-06-01T04:20:32.630Z,12.68
2018-06-01T04:21:40.696Z,12.70
2018-06-01T04:22:48.765Z,12.65
2018-06-01T04:23:56.844Z,12.75
2018-06-01T04:25:04.883Z,12.80
2018-06-01T04:26:12.963Z,12.69
2018-06-01T04:27:21.680Z,12.65
2018-06-01T04:28:29.898Z,12.86
2018-06-01T04:29:37.156Z,12.78
2018-06-01T04:30:45.227Z,12.86
2018-06-01T04:31:53.301Z,12.80
2018-06-01T04:33:01.352Z,12.81
2018-06-01T04:34:09.432Z,12.80
2018-06-01T04:35:17.486Z,12.91
2018-06-01T04:36:25.570Z,12.87
2018-06-01T04:37:33.598Z,12.87
2018-06-01T04:38:41.695Z,12.91
2018-06-01T04:39:49.754Z,12.91
2018-06-01T04:40:57.811Z,12.93
2018-06-01T04:42:05.891Z,12.93
2018-06-01T04:43:13.936Z,13.01
2018-06-01T04:44:22.005Z,13.03
2018-06-01T04:45:30.290Z,13.05
2018-06-01T04:46:38.259Z,13.02
2018-06-01T04:47:46.470Z,13.05
2018-06-01T04:48:54.778Z,13.02
2018-06-01T04:50:02.360Z,13.09
2018-06-01T04:51:10.408Z,13.17
2018-06-01T04:52:18.485Z,13.09
2018-06-01T04:53:26.554Z,13.20
2018-06-01T04:54:34.603Z,13.21
2018-06-01T04:55:42.678Z,13.24
2018-06-01T04:56:50.741Z,13.30
2018-06-01T04:57:58.909Z,13.42
2018-06-01T04:59:06.874Z,13.55
2018-06-01T05:00:14.938Z,13.62
2018-06-01T05:01:23.006Z,13.61
2018-06-01T05:02:31.489Z,13.78
2018-06-01T05:03:39.147Z,13.86
2018-06-01T05:04:47.219Z,14.04
2018-06-01T05:05:55.278Z,14.15
2018-06-01T05:07:03.336Z,14.18
2018-06-01T05:08:11.410Z,14.33
2018-06-01T05:09:19.474Z,14.31
2018-06-01T05:10:27.575Z,14.34
2018-06-01T05:11:35.605Z,14.36
2018-06-01T05:12:43.667Z,14.51
2018-06-01T05:13:51.732Z,14.52
2018-06-01T05:14:59.804Z,14.45
2018-06-01T05:16:07.886Z,14.55
2018-06-01T05:17:15.948Z,14.56
2018-06-01T05:18:23.990Z,14.51
2018-06-01T05:19:32.063Z,14.44
2018-06-01T05:20:40.150Z,14.53
2018-06-01T05:21:48.222Z,14.51
2018-06-01T05:22:56.288Z,14.59
2018-06-01T05:24:04.335Z,14.63
2018-06-01T05:25:12.408Z,14.70
2018-06-01T05:26:20.486Z,14.81
2018-06-01T05:27:28.545Z,14.82
2018-06-01T05:28:36.623Z,14.86
2018-06-01T05:29:44.682Z,14.89
2018-06-01T05:30:52.760Z,14.99
2018-06-01T05:32:00.831Z,15.07
2018-06-01T05:33:08.886Z,15.11
2018-06-01T05:34:16.965Z,15.12
2018-06-01T05:35:25.085Z,15.23
2018-06-01T05:36:33.095Z,15.22
2018-06-01T05:37:41.159Z,15.22
2018-06-01T05:38:49.235Z,15.27
2018-06-01T05:39:57.294Z,15.47
2018-06-01T05:41:05.469Z,15.33
2018-06-01T05:42:13.434Z,15.37
2018-06-01T05:43:21.902Z,15.29
2018-06-01T05:44:29.566Z,15.33
2018-06-01T05:45:38.106Z,15.36
2018-06-01T05:46:45.709Z,15.35
2018-06-01T05:47:53.744Z,15.23
2018-06-01T05:49:01.840Z,15.39
2018-06-01T05:50:09.911Z,15.35
2018-06-01T05:51:18.294Z,15.37
2018-06-01T05:52:26.041Z,15.43
2018-06-01T05:53:34.633Z,15.47
2018-06-01T05:54:42.187Z,15.67
2018-06-01T05:55:50.252Z,15.67
2018-06-01T05:56:58.312Z,15.75
2018-06-01T05:58:06.507Z,15.63
2018-06-01T05:59:14.533Z,15.72
2018-06-01T06:00:23.910Z,15.70
2018-06-01T06:01:30.995Z,15.70
2018-06-01T06:02:38.709Z,15.75
2018-06-01T06:03:47.368Z,15.70
2018-06-01T06:04:54.810Z,15.83
2018-06-01T06:06:02.876Z,15.98
2018-06-01T06:07:10.941Z,16.06
2018-06-01T06:08:19.422Z,16.16
2018-06-01T06:09:27.078Z,16.18
2018-06-01T06:10:35.152Z,16.31
2018-06-01T06:11:43.216Z,16.47
2018-06-01T06:12:51.459Z,16.49
2018-06-01T06:13:59.348Z,16.46
2018-06-01T06:15:07.631Z,16.43
2018-06-01T06:16:15.749Z,16.44
2018-06-01T06:17:23.982Z,16.36
2018-06-01T06:18:31.909Z,16.44
2018-06-01T06:19:39.709Z,16.54
2018-06-01T06:20:47.771Z,16.65
2018-06-01T06:21:55.844Z,16.87
2018-06-01T06:23:04.565Z,16.89
2018-06-01T06:24:12.404Z,16.99
2018-06-01T06:25:20.486Z,17.09
2018-06-01T06:26:28.119Z,17.05
2018-06-01T06:27:36.175Z,17.19
2018-06-01T06:28:46.273Z,17.28
2018-06-01T06:29:52.338Z,17.30
2018-06-01T06:31:00.394Z,17.07
2018-06-01T06:32:08.469Z,16.91
2018-06-01T06:33:16.544Z,16.89
2018-06-01T06:34:24.593Z,16.83
2018-06-01T06:35:32.678Z,16.86
2018-06-01T06:36:40.756Z,16.77
2018-06-01T06:37:48.872Z,17.12
2018-06-01T06:38:56.889Z,17.09
2018-06-01T06:40:05.573Z,17.13
2018-06-01T06:41:13.703Z,17.32
2018-06-01T06:42:21.753Z,17.38
2018-06-01T06:43:29.169Z,17.27
2018-06-01T06:44:37.779Z,17.41
2018-06-01T06:45:45.655Z,17.47
2018-06-01T06:46:53.572Z,17.54
2018-06-01T06:48:01.960Z,17.56
2018-06-01T06:49:09.519Z,17.49
2018-06-01T06:50:18.100Z,17.38
2018-06-01T06:51:25.664Z,17.34
2018-06-01T06:52:33.753Z,17.23
2018-06-01T06:53:41.792Z,17.16
2018-06-01T06:54:49.866Z,17.04
2018-06-01T06:55:58.031Z,17.13
2018-06-01T06:57:06.047Z,17.01
2018-06-01T06:58:14.056Z,16.97
2018-06-01T06:59:22.159Z,17.01
2018-06-01T07:00:30.291Z,17.07
2018-06-01T07:01:38.781Z,17.07
2018-06-01T07:02:46.388Z,17.13
2018-06-01T07:03:54.416Z,17.22
2018-06-01T07:05:02.502Z,17.22
2018-06-01T07:06:10.581Z,17.47
2018-06-01T07:07:18.647Z,17.56
2018-06-01T07:08:26.716Z,17.57
2018-06-01T07:09:34.788Z,17.69
2018-06-01T07:10:44.640Z,17.82
2018-06-01T07:11:50.911Z,18.08
2018-06-01T07:12:58.985Z,18.21
2018-06-01T07:14:07.059Z,18.31
2018-06-01T07:15:15.580Z,18.60
2018-06-01T07:16:23.429Z,18.94
2018-06-01T07:17:31.282Z,19.17
2018-06-01T07:18:39.549Z,19.19
2018-06-01T07:19:47.979Z,19.29
2018-06-01T07:20:56.114Z,19.49
2018-06-01T07:22:04.120Z,19.57
2018-06-01T07:23:13.008Z,19.52
2018-06-01T07:24:20.249Z,19.49
2018-06-01T07:25:28.152Z,19.55
2018-06-01T07:26:36.531Z,19.64
2018-06-01T07:27:44.493Z,19.72
2018-06-01T07:28:51.984Z,19.66
2018-06-01T07:30:00.068Z,19.62
2018-06-01T07:31:08.762Z,19.64
2018-06-01T07:32:16.340Z,19.44
2018-06-01T07:33:24.601Z,19.42
2018-06-01T07:34:32.998Z,19.52
2018-06-01T07:35:40.403Z,20.36
2018-06-01T07:36:48.499Z,20.37
2018-06-01T07:37:56.577Z,20.12
2018-06-01T07:39:04.621Z,20.53
2018-06-01T07:40:12.727Z,21.38
2018-06-01T07:41:20.794Z,21.88
2018-06-01T07:42:29.400Z,22.58
2018-06-01T07:43:36.913Z,22.96
2018-06-01T07:44:45.005Z,23.54
2018-06-01T07:45:53.079Z,23.71
2018-06-01T07:47:01.718Z,23.56
2018-06-01T07:48:09.858Z,23.36
2018-06-01T07:49:17.296Z,23.94
2018-06-01T07:50:25.754Z,23.91
2018-06-01T07:51:33.462Z,23.63
2018-06-01T07:52:42.159Z,23.42
2018-06-01T07:53:49.615Z,23.37
2018-06-01T07:54:57.694Z,22.92
2018-06-01T07:56:05.784Z,23.49
2018-06-01T07:57:14.463Z,23.48
2018-06-01T07:58:22.537Z,24.01
2018-06-01T07:59:30.614Z,24.04
2018-06-01T08:00:38.087Z,23.73
2018-06-01T08:01:46.153Z,23.51
2018-06-01T08:02:54.526Z,23.33
2018-06-01T08:04:02.397Z,23.16
2018-06-01T08:05:10.385Z,23.11
2018-06-01T08:06:18.624Z,22.78
2018-06-01T08:07:26.736Z,22.55
2018-06-01T08:08:35.220Z,22.62
2018-06-01T08:09:43.213Z,22.40
2018-06-01T08:10:50.767Z,22.38
2018-06-01T08:11:58.958Z,22.26
2018-06-01T08:13:06.916Z,22.74
2018-06-01T08:14:14.994Z,23.44
2018-06-01T08:15:23.685Z,23.71
2018-06-01T08:16:31.155Z,24.32
2018-06-01T08:17:39.229Z,24.34
2018-06-01T08:18:47.315Z,24.10
2018-06-01T08:19:55.381Z,24.21
2018-06-01T08:21:04.095Z,23.96
2018-06-01T08:22:11.529Z,23.66
2018-06-01T08:23:20.121Z,24.19
2018-06-01T08:24:27.679Z,24.47
2018-06-01T08:25:35.760Z,24.59
2018-06-01T08:26:43.813Z,24.25
2018-06-01T08:27:51.915Z,24.77
2018-06-01T08:28:59.994Z,25.06
2018-06-01T08:30:08.124Z,25.59
2018-06-01T08:31:16.147Z,25.56
2018-06-01T08:32:24.400Z,25.91
2018-06-01T08:33:32.601Z,26.08
2018-06-01T08:34:41.016Z,25.96
2018-06-01T08:35:48.481Z,26.13
2018-06-01T08:36:56.549Z,26.61
2018-06-01T08:38:04.609Z,26.86
2018-06-01T08:39:12.705Z,26.93
2018-06-01T08:40:20.782Z,27.26
2018-06-01T08:41:30.373Z,27.63
2018-06-01T08:42:36.954Z,27.81
2018-06-01T08:43:45.585Z,28.10
2018-06-01T08:44:53.605Z,28.06
2018-06-01T08:46:01.747Z,27.58
2018-06-01T08:47:09.717Z,27.04
2018-06-01T08:48:17.367Z,27.26
2018-06-01T08:49:25.468Z,27.37
2018-06-01T08:50:33.548Z,27.48
2018-06-01T08:51:42.240Z,27.43
2018-06-01T08:52:49.838Z,26.79
2018-06-01T08:53:58.390Z,26.51
2018-06-01T08:55:06.443Z,26.81
2018-06-01T08:56:14.575Z,26.92
2018-06-01T08:57:23.683Z,27.16
2018-06-01T08:58:30.696Z,27.34
2018-06-01T08:59:38.162Z,27.58
2018-06-01T09:00:46.551Z,27.11
2018-06-01T09:01:55.036Z,26.86
2018-06-01T09:03:03.536Z,26.44
2018-06-01T09:04:10.884Z,26.41
2018-06-01T09:05:19.916Z,26.37
2018-06-01T09:06:26.768Z,26.15
2018-06-01T09:07:35.434Z,26.34
2018-06-01T09:08:42.839Z,26.48
2018-06-01T09:09:51.130Z,26.22
2018-06-01T09:10:59.206Z,26.13
2018-06-01T09:12:07.076Z,25.85
2018-06-01T09:13:15.155Z,25.74
2018-06-01T09:14:23.232Z,25.59
2018-06-01T09:15:31.313Z,25.41
2018-06-01T09:16:39.427Z,25.44
2018-06-01T09:17:47.490Z,25.68
2018-06-01T09:18:55.709Z,25.71
2018-06-01T09:20:03.753Z,25.56
2018-06-01T09:21:11.758Z,25.59
2018-06-01T09:22:19.882Z,25.58
2018-06-01T09:23:28.773Z,25.44
2018-06-01T09:24:35.934Z,25.59
2018-06-01T09:25:44.001Z,25.44
2018-06-01T09:26:52.681Z,25.04
2018-06-01T09:28:00.228Z,24.78
2018-06-01T09:29:08.270Z,24.62
2018-06-01T09:30:17.876Z,24.63
2018-06-01T09:31:24.398Z,24.59
2018-06-01T09:32:32.502Z,24.68
2018-06-01T09:33:40.717Z,24.44
2018-06-01T09:34:48.648Z,24.32
2018-06-01T09:35:56.732Z,24.38
2018-06-01T09:37:04.811Z,24.44
2018-06-01T09:38:12.877Z,24.55
2018-06-01T09:39:21.118Z,24.36
2018-06-01T09:40:29.046Z,24.26
2018-06-01T09:41:37.116Z,24.51
2018-06-01T09:42:45.176Z,24.63
2018-06-01T09:43:53.268Z,24.59
2018-06-01T09:45:01.372Z,24.53
2018-06-01T09:46:09.421Z,24.56
2018-06-01T09:47:17.533Z,24.48
2018-06-01T09:48:25.573Z,24.48
2018-06-01T09:49:33.622Z,24.50
2018-06-01T09:50:41.719Z,24.40
2018-06-01T09:51:49.795Z,24.59
2018-06-01T09:52:57.869Z,24.77
2018-06-01T09:54:05.946Z,24.66
2018-06-01T09:55:14.033Z,24.58
2018-06-01T09:56:22.098Z,24.38
2018-06-01T09:57:30.169Z,24.50
2018-06-01T09:58:38.251Z,24.56
2018-06-01T09:59:46.328Z,24.58
2018-06-01T10:00:54.851Z,24.36
2018-06-01T10:02:02.680Z,24.04
2018-06-01T10:03:10.855Z,23.71
2018-06-01T10:04:18.610Z,23.45
2018-06-01T10:05:26.695Z,23.39
2018-06-01T10:06:34.783Z,23.40
2018-06-01T10:07:43.082Z,23.62
2018-06-01T10:08:51.249Z,23.58
2018-06-01T10:09:59.487Z,23.59
2018-06-01T10:11:07.717Z,23.70
2018-06-01T10:12:15.819Z,24.01
2018-06-01T10:13:23.220Z,24.25
2018-06-01T10:14:31.300Z,24.14
2018-06-01T10:15:39.395Z,24.41
2018-06-01T10:16:47.454Z,24.55
2018-06-01T10:17:55.533Z,24.58
2018-06-01T10:19:03.688Z,24.50
2018-06-01T10:20:11.674Z,24.31
2018-06-01T10:21:19.757Z,23.89
2018-06-01T10:22:27.959Z,23.71
2018-06-01T10:23:35.969Z,23.73
2018-06-01T10:24:43.986Z,23.77
2018-06-01T10:25:52.043Z,23.66
2018-06-01T10:27:01.905Z,23.63
2018-06-01T10:28:08.183Z,23.62
2018-06-01T10:29:17.072Z,23.55
2018-06-01T10:30:24.548Z,23.58
2018-06-01T10:31:32.410Z,23.58
2018-06-01T10:32:40.504Z,23.56
2018-06-01T10:33:49.177Z,23.47
2018-06-01T10:34:57.222Z,23.58
2018-06-01T10:36:04.719Z,23.62
2018-06-01T10:37:13.391Z,23.74
2018-06-01T10:38:20.877Z,23.64
2018-06-01T10:39:28.975Z,23.71
2018-06-01T10:40:37.007Z,23.79
2018-06-01T10:41:45.080Z,23.92
2018-06-01T10:42:53.268Z,23.99
2018-06-01T10:44:01.236Z,24.04
2018-06-01T10:45:09.458Z,24.16
2018-06-01T10:46:17.952Z,24.14
2018-06-01T10:47:25.498Z,24.01
2018-06-01T10:48:33.507Z,23.92
2018-06-01T10:49:41.704Z,23.70
2018-06-01T10:50:50.367Z,23.64
2018-06-01T10:51:57.750Z,23.67
2018-06-01T10:53:06.108Z,23.79
2018-06-01T10:54:13.860Z,23.66
2018-06-01T10:55:21.960Z,23.66
2018-06-01T10:56:30.196Z,23.51
2018-06-01T10:57:39.254Z,23.62
2018-06-01T10:58:46.889Z,23.69
2018-06-01T10:59:54.225Z,23.77
2018-06-01T11:01:02.963Z,23.88
2018-06-01T11:02:10.630Z,24.04
2018-06-01T11:03:19.189Z,24.19
2018-06-01T11:04:26.545Z,24.25
2018-06-01T11:05:34.616Z,24.38
2018-06-01T11:06:42.700Z,24.44
2018-06-01T11:07:51.268Z,24.31
2018-06-01T11:08:59.368Z,24.19
2018-06-01T11:10:06.928Z,24.09
2018-06-01T11:11:15.549Z,24.11
2018-06-01T11:12:23.093Z,24.24
2018-06-01T11:13:31.441Z,24.25
2018-06-01T11:14:39.213Z,24.19
2018-06-01T11:15:47.294Z,24.24
2018-06-01T11:16:56.033Z,24.28
2018-06-01T11:18:03.435Z,24.19
2018-06-01T11:19:11.508Z,24.22
2018-06-01T11:20:19.590Z,24.19
2018-06-01T11:21:28.320Z,24.10
2018-06-01T11:22:35.748Z,24.21
2018-06-01T11:23:44.039Z,24.25
2018-06-01T11:24:51.875Z,24.24
2018-06-01T11:26:00.589Z,24.29
2018-06-01T11:27:08.610Z,24.29
2018-06-01T11:28:16.317Z,24.32
2018-06-01T11:29:24.701Z,24.34
2018-06-01T11:30:32.844Z,24.28
2018-06-01T11:31:40.987Z,24.29
2018-06-01T11:32:48.605Z,24.26
2018-06-01T11:33:56.600Z,24.26
2018-06-01T11:35:04.772Z,24.31
2018-06-01T11:36:12.593Z,24.31
2018-06-01T11:37:20.678Z,24.22
2018-06-01T11:38:28.859Z,24.22
2018-06-01T11:39:36.831Z,24.21
2018-06-01T11:40:44.896Z,24.22
2018-06-01T11:41:53.004Z,24.07
2018-06-01T11:43:01.124Z,23.89
2018-06-01T11:44:09.104Z,23.88
2018-06-01T11:45:17.818Z,23.96
2018-06-01T11:46:25.267Z,24.04
2018-06-01T11:47:33.429Z,24.11
2018-06-01T11:48:41.504Z,24.16
2018-06-01T11:49:49.477Z,24.22
2018-06-01T11:50:57.552Z,24.11
2018-06-01T11:52:05.733Z,24.18
2018-06-01T11:53:13.803Z,24.14
2018-06-01T11:54:22.338Z,24.21
2018-06-01T11:55:31.605Z,24.14
2018-06-01T11:56:37.908Z,24.25
2018-06-01T11:57:46.031Z,24.19
2018-06-01T11:58:54.038Z,24.14
2018-06-01T12:00:02.465Z,24.24
2018-06-01T12:01:10.845Z,24.19
2018-06-01T12:02:18.832Z,24.04
2018-06-01T12:03:26.687Z,24.07
2018-06-01T12:04:34.418Z,24.24
2018-06-01T12:05:42.495Z,24.31
2018-06-01T12:06:50.564Z,24.37
2018-06-01T12:07:58.653Z,24.37
2018-06-01T12:09:06.727Z,24.46
2018-06-01T12:10:14.800Z,24.34
2018-06-01T12:11:22.881Z,24.10
2018-06-01T12:12:30.978Z,24.25
2018-06-01T12:13:39.021Z,24.26
2018-06-01T12:14:47.096Z,24.44
2018-06-01T12:15:55.406Z,24.50
2018-06-01T12:17:03.243Z,24.50
2018-06-01T12:18:11.311Z,24.51
2018-06-01T12:19:19.396Z,24.48
2018-06-01T12:20:27.464Z,24.59
2018-06-01T12:21:35.539Z,24.59
2018-06-01T12:22:43.583Z,24.59
2018-06-01T12:23:51.717Z,24.62
2018-06-01T12:24:59.755Z,24.56
2018-06-01T12:26:07.829Z,24.56
2018-06-01T12:27:15.894Z,24.50
2018-06-01T12:28:24.104Z,24.56
2018-06-01T12:29:32.253Z,24.53
2018-06-01T12:30:41.275Z,24.48
2018-06-01T12:31:48.830Z,24.55
2018-06-01T12:32:56.553Z,24.58
2018-06-01T12:34:04.591Z,24.62
2018-06-01T12:35:12.405Z,24.66
2018-06-01T12:36:21.088Z,24.56
2018-06-01T12:37:28.793Z,24.75
2018-06-01T12:38:36.613Z,24.89
2018-06-01T12:39:44.944Z,24.84
2018-06-01T12:40:52.817Z,24.97
2018-06-01T12:42:01.095Z,24.92
2018-06-01T12:43:08.903Z,24.89
2018-06-01T12:44:16.980Z,25.01
2018-06-01T12:45:25.300Z,25.11
2018-06-01T12:46:33.390Z,25.12
2018-06-01T12:47:41.429Z,25.11
2018-06-01T12:48:49.447Z,25.18
2018-06-01T12:49:57.647Z,25.25
2018-06-01T12:51:05.429Z,25.31
2018-06-01T12:52:13.894Z,25.39
2018-06-01T12:53:21.821Z,25.07
2018-06-01T12:54:29.892Z,24.97
2018-06-01T12:55:38.015Z,24.96
2018-06-01T12:56:45.785Z,24.65
2018-06-01T12:57:54.085Z,24.56
2018-06-01T12:59:02.182Z,24.32
2018-06-01T13:00:10.012Z,24.56
2018-06-01T13:01:18.117Z,24.69
2018-06-01T13:02:26.492Z,24.86
2018-06-01T13:03:34.567Z,24.97
2018-06-01T13:04:42.595Z,25.07
2018-06-01T13:05:50.706Z,25.22
2018-06-01T13:06:58.650Z,25.37
2018-06-01T13:08:06.527Z,25.36
2018-06-01T13:09:14.713Z,25.49
2018-06-01T13:10:22.892Z,25.58
2018-06-01T13:11:31.023Z,25.67
2018-06-01T13:12:38.832Z,25.74
2018-06-01T13:13:47.299Z,25.88
2018-06-01T13:14:56.726Z,25.91
2018-06-01T13:16:03.072Z,26.04
2018-06-01T13:17:11.394Z,25.93
2018-06-01T13:18:19.557Z,25.88
2018-06-01T13:19:27.643Z,25.80
2018-06-01T13:20:35.610Z,25.88
2018-06-01T13:21:43.414Z,25.88
2018-06-01T13:22:51.564Z,25.76
2018-06-01T13:23:59.562Z,25.54
2018-06-01T13:25:07.629Z,25.34
2018-06-01T13:26:16.032Z,25.29
2018-06-01T13:27:23.762Z,25.12
2018-06-01T13:28:32.116Z,24.84
2018-06-01T13:29:40.204Z,24.74
2018-06-01T13:30:48.242Z,24.74
2018-06-01T13:31:56.273Z,24.63
2018-06-01T13:33:04.418Z,24.61
2018-06-01T13:34:12.509Z,24.62
2018-06-01T13:35:20.617Z,24.56
2018-06-01T13:36:28.376Z,24.48
2018-06-01T13:37:36.671Z,24.41
2018-06-01T13:38:44.500Z,24.32
2018-06-01T13:39:52.865Z,24.32
2018-06-01T13:41:00.841Z,24.37
2018-06-01T13:42:09.005Z,24.38
2018-06-01T13:43:17.090Z,24.34
2018-06-01T13:44:25.057Z,24.50
2018-06-01T13:45:33.278Z,24.50
2018-06-01T13:46:41.270Z,24.62
2018-06-01T13:47:49.383Z,24.63
2018-06-01T13:48:57.354Z,24.74
2018-06-01T13:50:05.566Z,24.61
2018-06-01T13:51:13.589Z,24.92
2018-06-01T13:52:21.407Z,24.99
2018-06-01T13:53:29.829Z,24.96
2018-06-01T13:54:37.539Z,24.96
2018-06-01T13:55:45.740Z,24.96
2018-06-01T13:56:53.866Z,24.96
2018-06-01T13:58:02.042Z,25.03
2018-06-01T13:59:09.841Z,24.97
2018-06-01T14:00:17.915Z,25.24
2018-06-01T14:01:25.984Z,25.22
2018-06-01T14:02:34.039Z,25.18
2018-06-01T14:03:42.134Z,25.12
2018-06-01T14:04:50.195Z,25.24
2018-06-01T14:05:59.802Z,25.14
2018-06-01T14:07:06.768Z,25.09
2018-06-01T14:08:15.012Z,24.93
2018-06-01T14:09:23.182Z,24.92
2018-06-01T14:10:31.183Z,24.89
2018-06-01T14:11:38.769Z,24.89
2018-06-01T14:12:48.234Z,24.78
2018-06-01T14:13:55.032Z,24.71
2018-06-01T14:15:03.291Z,24.55
2018-06-01T14:16:11.256Z,24.38
2018-06-01T14:17:19.075Z,24.14
2018-06-01T14:18:28.863Z,24.11
2018-06-01T14:19:35.782Z,24.07
2018-06-01T14:20:43.547Z,23.88
2018-06-01T14:21:51.608Z,23.95
2018-06-01T14:22:59.619Z,23.96
2018-06-01T14:24:07.699Z,23.89
2018-06-01T14:25:15.529Z,23.96
2018-06-01T14:26:23.586Z,23.86
2018-06-01T14:27:31.682Z,23.92
2018-06-01T14:28:39.932Z,23.96
2018-06-01T14:29:47.828Z,23.91
2018-06-01T14:30:55.902Z,23.88
2018-06-01T14:32:03.991Z,23.95
2018-06-01T14:33:12.093Z,23.89
2018-06-01T14:34:20.119Z,23.89
2018-06-01T14:35:28.209Z,23.89
2018-06-01T14:36:36.262Z,23.91